sensor_id;sensor_type;location;lat;lon;timestamp;pressure;altitude;pressure_sealevel;temperature;humidity
40372;BME280;28564;53.346;-6.554;2023-06-14T00:00:37;100899.01;;;24.14;33.31
40372;BME280;28564;53.346;-6.554;2023-06-14T00:03:04;100901.78;;;24.08;33.44
40372;BME280;28564;53.346;-6.554;2023-06-14T00:05:32;100901.14;;;24.02;33.54
40372;BME280;28564;53.346;-6.554;2023-06-14T00:07:59;100900.80;;;24.24;33.61
40372;BME280;28564;53.346;-6.554;2023-06-14T00:10:26;100900.48;;;24.21;33.71
40372;BME280;28564;53.346;-6.554;2023-06-14T00:12:54;100901.46;;;23.95;33.77
40372;BME280;28564;53.346;-6.554;2023-06-14T00:15:21;100908.55;;;23.96;33.84
40372;BME280;28564;53.346;-6.554;2023-06-14T00:17:49;100907.14;;;24.00;33.83
40372;BME280;28564;53.346;-6.554;2023-06-14T00:20:16;100906.82;;;24.27;33.87
40372;BME280;28564;53.346;-6.554;2023-06-14T00:22:44;100906.17;;;23.72;33.96
40372;BME280;28564;53.346;-6.554;2023-06-14T00:25:11;100909.89;;;24.17;34.02
40372;BME280;28564;53.346;-6.554;2023-06-14T00:27:38;100909.09;;;24.14;34.11
40372;BME280;28564;53.346;-6.554;2023-06-14T00:30:06;100908.15;;;24.08;34.26
40372;BME280;28564;53.346;-6.554;2023-06-14T00:32:34;100906.07;;;23.99;34.40
40372;BME280;28564;53.346;-6.554;2023-06-14T00:35:01;100903.17;;;23.89;34.62
40372;BME280;28564;53.346;-6.554;2023-06-14T00:37:29;100902.17;;;23.53;34.87
40372;BME280;28564;53.346;-6.554;2023-06-14T00:39:56;100902.17;;;23.73;35.02
40372;BME280;28564;53.346;-6.554;2023-06-14T00:42:24;100901.68;;;23.90;35.10
40372;BME280;28564;53.346;-6.554;2023-06-14T00:44:52;100903.28;;;23.58;35.27
40372;BME280;28564;53.346;-6.554;2023-06-14T00:47:19;100904.34;;;23.69;35.43
40372;BME280;28564;53.346;-6.554;2023-06-14T00:49:48;100900.78;;;23.37;35.62
40372;BME280;28564;53.346;-6.554;2023-06-14T00:52:17;100900.94;;;23.50;35.80
40372;BME280;28564;53.346;-6.554;2023-06-14T00:54:44;100897.85;;;23.19;35.99
40372;BME280;28564;53.346;-6.554;2023-06-14T00:57:12;100898.68;;;23.32;36.22
40372;BME280;28564;53.346;-6.554;2023-06-14T00:59:43;100896.23;;;23.25;36.32
40372;BME280;28564;53.346;-6.554;2023-06-14T01:02:11;100894.18;;;23.22;36.40
40372;BME280;28564;53.346;-6.554;2023-06-14T01:04:40;100896.68;;;23.13;36.68
40372;BME280;28564;53.346;-6.554;2023-06-14T01:07:12;100896.56;;;23.05;36.83
40372;BME280;28564;53.346;-6.554;2023-06-14T01:09:51;100903.62;;;22.98;37.00
40372;BME280;28564;53.346;-6.554;2023-06-14T01:12:29;100903.65;;;22.97;37.07
40372;BME280;28564;53.346;-6.554;2023-06-14T01:14:59;100903.47;;;22.93;37.15
40372;BME280;28564;53.346;-6.554;2023-06-14T01:17:27;100904.43;;;22.88;37.27
40372;BME280;28564;53.346;-6.554;2023-06-14T01:19:55;100907.09;;;22.84;37.37
40372;BME280;28564;53.346;-6.554;2023-06-14T01:22:22;100906.86;;;22.78;37.46
40372;BME280;28564;53.346;-6.554;2023-06-14T01:24:49;100905.98;;;23.01;37.55
40372;BME280;28564;53.346;-6.554;2023-06-14T01:27:16;100907.73;;;22.96;37.72
40372;BME280;28564;53.346;-6.554;2023-06-14T01:29:44;100905.95;;;22.64;37.81
40372;BME280;28564;53.346;-6.554;2023-06-14T01:32:12;100902.01;;;22.86;37.90
40372;BME280;28564;53.346;-6.554;2023-06-14T01:34:39;100898.90;;;22.57;37.96
40372;BME280;28564;53.346;-6.554;2023-06-14T01:37:06;100898.82;;;22.57;37.99
40372;BME280;28564;53.346;-6.554;2023-06-14T01:39:35;100900.91;;;22.56;38.02
40372;BME280;28564;53.346;-6.554;2023-06-14T01:42:03;100901.35;;;22.48;38.19
40372;BME280;28564;53.346;-6.554;2023-06-14T01:44:31;100899.32;;;22.91;38.34
40372;BME280;28564;53.346;-6.554;2023-06-14T01:46:58;100899.80;;;22.66;38.45
40372;BME280;28564;53.346;-6.554;2023-06-14T01:49:26;100897.69;;;22.85;38.57
40372;BME280;28564;53.346;-6.554;2023-06-14T01:51:54;100895.23;;;22.83;38.65
40372;BME280;28564;53.346;-6.554;2023-06-14T01:54:21;100897.41;;;22.81;38.72
40372;BME280;28564;53.346;-6.554;2023-06-14T01:56:48;100895.81;;;22.53;38.89
40372;BME280;28564;53.346;-6.554;2023-06-14T01:59:15;100896.15;;;22.48;39.05
40372;BME280;28564;53.346;-6.554;2023-06-14T02:01:42;100896.12;;;22.65;39.19
40372;BME280;28564;53.346;-6.554;2023-06-14T02:04:10;100893.25;;;22.62;39.24
40372;BME280;28564;53.346;-6.554;2023-06-14T02:06:38;100893.64;;;22.60;39.33
40372;BME280;28564;53.346;-6.554;2023-06-14T02:09:05;100892.73;;;22.38;39.36
40372;BME280;28564;53.346;-6.554;2023-06-14T02:11:32;100894.85;;;22.40;39.35
40372;BME280;28564;53.346;-6.554;2023-06-14T02:14:00;100894.60;;;22.11;39.42
40372;BME280;28564;53.346;-6.554;2023-06-14T02:16:27;100895.21;;;22.55;39.54
40372;BME280;28564;53.346;-6.554;2023-06-14T02:18:55;100892.63;;;22.53;39.61
40372;BME280;28564;53.346;-6.554;2023-06-14T02:21:22;100891.46;;;22.54;39.59
40372;BME280;28564;53.346;-6.554;2023-06-14T02:23:50;100891.26;;;22.56;39.52
40372;BME280;28564;53.346;-6.554;2023-06-14T02:26:17;100894.08;;;22.29;39.55
40372;BME280;28564;53.346;-6.554;2023-06-14T02:28:45;100894.00;;;22.27;39.55
40372;BME280;28564;53.346;-6.554;2023-06-14T02:31:12;100893.19;;;22.48;39.54
40372;BME280;28564;53.346;-6.554;2023-06-14T02:33:39;100894.10;;;22.46;39.57
40372;BME280;28564;53.346;-6.554;2023-06-14T02:36:07;100891.96;;;22.44;39.58
40372;BME280;28564;53.346;-6.554;2023-06-14T02:38:35;100893.73;;;22.20;39.57
40372;BME280;28564;53.346;-6.554;2023-06-14T02:41:02;100893.94;;;22.20;39.57
40372;BME280;28564;53.346;-6.554;2023-06-14T02:43:29;100899.87;;;21.94;39.54
40372;BME280;28564;53.346;-6.554;2023-06-14T02:45:57;100895.97;;;22.44;39.48
40372;BME280;28564;53.346;-6.554;2023-06-14T02:48:25;100898.53;;;21.94;39.47
40372;BME280;28564;53.346;-6.554;2023-06-14T02:50:52;100897.50;;;22.44;39.42
40372;BME280;28564;53.346;-6.554;2023-06-14T02:53:19;100899.74;;;22.44;39.35
40372;BME280;28564;53.346;-6.554;2023-06-14T02:55:46;100894.22;;;22.24;39.27
40372;BME280;28564;53.346;-6.554;2023-06-14T02:58:13;100895.59;;;22.52;39.17
40372;BME280;28564;53.346;-6.554;2023-06-14T03:00:40;100897.66;;;22.08;39.06
40372;BME280;28564;53.346;-6.554;2023-06-14T03:03:08;100898.84;;;22.15;38.94
40372;BME280;28564;53.346;-6.554;2023-06-14T03:05:34;100897.17;;;22.49;38.75
40372;BME280;28564;53.346;-6.554;2023-06-14T03:08:02;100897.17;;;22.29;38.59
40372;BME280;28564;53.346;-6.554;2023-06-14T03:10:29;100897.69;;;22.64;38.35
40372;BME280;28564;53.346;-6.554;2023-06-14T03:12:56;100900.23;;;22.45;38.09
40372;BME280;28564;53.346;-6.554;2023-06-14T03:15:23;100903.38;;;22.50;37.79
40372;BME280;28564;53.346;-6.554;2023-06-14T03:17:50;100907.31;;;23.07;37.66
40372;BME280;28564;53.346;-6.554;2023-06-14T03:20:18;100907.36;;;22.65;37.52
40372;BME280;28564;53.346;-6.554;2023-06-14T03:22:45;100907.85;;;22.67;37.42
40372;BME280;28564;53.346;-6.554;2023-06-14T03:25:12;100911.04;;;22.67;37.34
40372;BME280;28564;53.346;-6.554;2023-06-14T03:27:39;100908.21;;;22.65;37.25
40372;BME280;28564;53.346;-6.554;2023-06-14T03:30:08;100908.80;;;23.14;37.14
40372;BME280;28564;53.346;-6.554;2023-06-14T03:32:35;100912.51;;;22.66;37.07
40372;BME280;28564;53.346;-6.554;2023-06-14T03:35:03;100911.90;;;22.60;37.01
40372;BME280;28564;53.346;-6.554;2023-06-14T03:37:31;100912.84;;;22.61;37.00
40372;BME280;28564;53.346;-6.554;2023-06-14T03:39:58;100915.46;;;22.61;36.90
40372;BME280;28564;53.346;-6.554;2023-06-14T03:42:25;100917.63;;;22.61;36.80
40372;BME280;28564;53.346;-6.554;2023-06-14T03:44:52;100917.26;;;22.61;36.74
40372;BME280;28564;53.346;-6.554;2023-06-14T03:47:19;100917.83;;;22.58;36.61
40372;BME280;28564;53.346;-6.554;2023-06-14T03:49:46;100917.37;;;22.58;36.53
40372;BME280;28564;53.346;-6.554;2023-06-14T03:52:14;100916.39;;;22.61;36.41
40372;BME280;28564;53.346;-6.554;2023-06-14T03:54:40;100919.80;;;22.63;35.96
40372;BME280;28564;53.346;-6.554;2023-06-14T03:57:08;100921.38;;;22.65;35.48
40372;BME280;28564;53.346;-6.554;2023-06-14T03:59:35;100928.21;;;22.69;35.04
40372;BME280;28564;53.346;-6.554;2023-06-14T04:02:03;100922.21;;;22.75;34.34
40372;BME280;28564;53.346;-6.554;2023-06-14T04:04:30;100923.82;;;22.82;33.78
40372;BME280;28564;53.346;-6.554;2023-06-14T04:06:57;100924.38;;;22.92;33.04
40372;BME280;28564;53.346;-6.554;2023-06-14T04:09:25;100926.57;;;23.01;32.36
40372;BME280;28564;53.346;-6.554;2023-06-14T04:11:52;100927.30;;;23.14;31.85
40372;BME280;28564;53.346;-6.554;2023-06-14T04:14:20;100924.24;;;23.23;31.55
40372;BME280;28564;53.346;-6.554;2023-06-14T04:16:49;100924.29;;;23.34;31.13
40372;BME280;28564;53.346;-6.554;2023-06-14T04:19:16;100926.72;;;23.23;31.03
40372;BME280;28564;53.346;-6.554;2023-06-14T04:21:44;100926.45;;;23.55;30.75
40372;BME280;28564;53.346;-6.554;2023-06-14T04:24:11;100925.51;;;23.63;30.62
40372;BME280;28564;53.346;-6.554;2023-06-14T04:26:39;100926.59;;;23.48;30.27
40372;BME280;28564;53.346;-6.554;2023-06-14T04:29:06;100924.76;;;23.58;29.85
40372;BME280;28564;53.346;-6.554;2023-06-14T04:31:33;100925.86;;;23.67;29.76
40372;BME280;28564;53.346;-6.554;2023-06-14T04:34:01;100930.71;;;23.98;29.45
40372;BME280;28564;53.346;-6.554;2023-06-14T04:36:28;100930.22;;;23.84;29.39
40372;BME280;28564;53.346;-6.554;2023-06-14T04:38:55;100932.19;;;23.92;29.35
40372;BME280;28564;53.346;-6.554;2023-06-14T04:41:22;100933.11;;;23.71;29.33
40372;BME280;28564;53.346;-6.554;2023-06-14T04:43:49;100931.18;;;23.76;29.27
40372;BME280;28564;53.346;-6.554;2023-06-14T04:46:16;100937.69;;;23.82;29.16
40372;BME280;28564;53.346;-6.554;2023-06-14T04:48:43;100932.13;;;24.15;29.15
40372;BME280;28564;53.346;-6.554;2023-06-14T04:51:10;100937.72;;;24.22;29.14
40372;BME280;28564;53.346;-6.554;2023-06-14T04:53:38;100940.34;;;24.02;29.04
40372;BME280;28564;53.346;-6.554;2023-06-14T04:56:05;100939.38;;;24.08;29.10
40372;BME280;28564;53.346;-6.554;2023-06-14T04:58:33;100944.21;;;23.95;28.77
40372;BME280;28564;53.346;-6.554;2023-06-14T05:01:00;100943.95;;;24.21;28.74
40372;BME280;28564;53.346;-6.554;2023-06-14T05:03:27;100946.26;;;24.29;28.26
40372;BME280;28564;53.346;-6.554;2023-06-14T05:05:54;100944.69;;;24.37;28.30
40372;BME280;28564;53.346;-6.554;2023-06-14T05:08:22;100946.49;;;24.46;28.07
40372;BME280;28564;53.346;-6.554;2023-06-14T05:10:50;100950.98;;;24.32;27.95
40372;BME280;28564;53.346;-6.554;2023-06-14T05:13:18;100949.53;;;24.39;28.05
40372;BME280;28564;53.346;-6.554;2023-06-14T05:15:45;100948.83;;;24.25;28.32
40372;BME280;28564;53.346;-6.554;2023-06-14T05:18:12;100950.20;;;24.52;29.15
40372;BME280;28564;53.346;-6.554;2023-06-14T05:20:39;100947.40;;;24.47;29.68
40372;BME280;28564;53.346;-6.554;2023-06-14T05:23:07;100946.38;;;24.41;30.08
40372;BME280;28564;53.346;-6.554;2023-06-14T05:25:34;100949.59;;;24.40;30.18
40372;BME280;28564;53.346;-6.554;2023-06-14T05:28:02;100952.49;;;24.16;30.09
40372;BME280;28564;53.346;-6.554;2023-06-14T05:30:28;100956.82;;;24.58;30.16
40372;BME280;28564;53.346;-6.554;2023-06-14T05:32:56;100955.51;;;24.32;30.27
40372;BME280;28564;53.346;-6.554;2023-06-14T05:35:23;100958.95;;;24.30;30.30
40372;BME280;28564;53.346;-6.554;2023-06-14T05:37:50;100960.08;;;24.24;30.38
40372;BME280;28564;53.346;-6.554;2023-06-14T05:40:18;100960.63;;;24.16;30.38
40372;BME280;28564;53.346;-6.554;2023-06-14T05:42:45;100961.39;;;24.07;30.55
40372;BME280;28564;53.346;-6.554;2023-06-14T05:45:12;100960.46;;;23.96;30.66
40372;BME280;28564;53.346;-6.554;2023-06-14T05:47:39;100957.32;;;24.05;30.78
40372;BME280;28564;53.346;-6.554;2023-06-14T05:50:07;100961.78;;;23.72;31.00
40372;BME280;28564;53.346;-6.554;2023-06-14T05:52:34;100962.01;;;24.12;31.16
40372;BME280;28564;53.346;-6.554;2023-06-14T05:55:02;100961.76;;;23.72;31.22
40372;BME280;28564;53.346;-6.554;2023-06-14T05:57:30;100961.64;;;23.87;31.32
40372;BME280;28564;53.346;-6.554;2023-06-14T05:59:57;100963.87;;;23.80;31.53
40372;BME280;28564;53.346;-6.554;2023-06-14T06:02:24;100966.93;;;23.99;31.58
40372;BME280;28564;53.346;-6.554;2023-06-14T06:04:52;100968.78;;;23.77;31.67
40372;BME280;28564;53.346;-6.554;2023-06-14T06:07:19;100970.98;;;23.53;31.74
40372;BME280;28564;53.346;-6.554;2023-06-14T06:09:46;100973.52;;;23.78;31.78
40372;BME280;28564;53.346;-6.554;2023-06-14T06:12:14;100976.44;;;23.98;31.81
40372;BME280;28564;53.346;-6.554;2023-06-14T06:14:41;100975.79;;;23.46;31.87
40372;BME280;28564;53.346;-6.554;2023-06-14T06:17:09;100977.03;;;23.44;31.85
40372;BME280;28564;53.346;-6.554;2023-06-14T06:19:36;100979.32;;;23.70;31.71
40372;BME280;28564;53.346;-6.554;2023-06-14T06:22:04;100982.54;;;23.40;31.79
40372;BME280;28564;53.346;-6.554;2023-06-14T06:24:31;100982.56;;;23.68;31.71
40372;BME280;28564;53.346;-6.554;2023-06-14T06:26:58;100984.34;;;23.42;31.55
40372;BME280;28564;53.346;-6.554;2023-06-14T06:29:25;100989.98;;;23.49;31.49
40372;BME280;28564;53.346;-6.554;2023-06-14T06:31:52;100992.32;;;23.56;31.51
40372;BME280;28564;53.346;-6.554;2023-06-14T06:34:19;100993.42;;;23.66;31.45
40372;BME280;28564;53.346;-6.554;2023-06-14T06:36:46;100995.72;;;24.04;31.39
40372;BME280;28564;53.346;-6.554;2023-06-14T06:39:13;100993.34;;;23.89;31.32
40372;BME280;28564;53.346;-6.554;2023-06-14T06:41:40;101003.85;;;24.01;31.19
40372;BME280;28564;53.346;-6.554;2023-06-14T06:44:08;100996.09;;;24.03;30.68
40372;BME280;28564;53.346;-6.554;2023-06-14T06:46:35;100996.55;;;24.34;30.66
40372;BME280;28564;53.346;-6.554;2023-06-14T06:49:02;100993.86;;;24.09;30.15
40372;BME280;28564;53.346;-6.554;2023-06-14T06:51:29;100997.60;;;24.11;29.86
40372;BME280;28564;53.346;-6.554;2023-06-14T06:53:56;101000.62;;;24.08;29.39
40372;BME280;28564;53.346;-6.554;2023-06-14T06:56:23;101004.23;;;24.08;29.33
40372;BME280;28564;53.346;-6.554;2023-06-14T06:58:50;101007.55;;;24.09;29.30
40372;BME280;28564;53.346;-6.554;2023-06-14T07:01:18;101008.62;;;24.11;29.15
40372;BME280;28564;53.346;-6.554;2023-06-14T07:03:45;101009.67;;;24.15;29.23
40372;BME280;28564;53.346;-6.554;2023-06-14T07:06:12;101012.01;;;24.20;29.20
40372;BME280;28564;53.346;-6.554;2023-06-14T07:08:39;101017.13;;;24.25;28.93
40372;BME280;28564;53.346;-6.554;2023-06-14T07:11:06;101018.47;;;24.28;28.86
40372;BME280;28564;53.346;-6.554;2023-06-14T07:13:33;101020.08;;;24.33;28.76
40372;BME280;28564;53.346;-6.554;2023-06-14T07:16:01;101021.03;;;24.21;28.78
40372;BME280;28564;53.346;-6.554;2023-06-14T07:18:28;101026.44;;;24.30;28.55
40372;BME280;28564;53.346;-6.554;2023-06-14T07:20:56;101026.75;;;24.59;28.54
40372;BME280;28564;53.346;-6.554;2023-06-14T07:23:23;101030.52;;;24.65;28.28
40372;BME280;28564;53.346;-6.554;2023-06-14T07:25:51;101033.99;;;25.01;28.56
40372;BME280;28564;53.346;-6.554;2023-06-14T07:28:18;101039.95;;;24.40;28.66
40372;BME280;28564;53.346;-6.554;2023-06-14T07:30:45;101041.86;;;24.44;28.35
40372;BME280;28564;53.346;-6.554;2023-06-14T07:33:12;101041.58;;;24.48;28.34
40372;BME280;28564;53.346;-6.554;2023-06-14T07:35:39;101039.08;;;24.76;28.30
40372;BME280;28564;53.346;-6.554;2023-06-14T07:38:06;101041.15;;;24.60;28.07
40372;BME280;28564;53.346;-6.554;2023-06-14T07:40:34;101044.16;;;24.62;27.74
40372;BME280;28564;53.346;-6.554;2023-06-14T07:43:01;101048.73;;;24.64;27.30
40372;BME280;28564;53.346;-6.554;2023-06-14T07:45:29;101051.95;;;24.71;27.31
40372;BME280;28564;53.346;-6.554;2023-06-14T07:47:56;101057.91;;;24.81;27.41
40372;BME280;28564;53.346;-6.554;2023-06-14T07:50:23;101059.38;;;24.91;27.27
40372;BME280;28564;53.346;-6.554;2023-06-14T07:52:51;101060.44;;;25.00;27.13
40372;BME280;28564;53.346;-6.554;2023-06-14T07:55:19;101062.63;;;25.04;26.71
40372;BME280;28564;53.346;-6.554;2023-06-14T07:57:45;101064.22;;;25.09;26.53
40372;BME280;28564;53.346;-6.554;2023-06-14T08:00:13;101066.93;;;25.14;26.85
40372;BME280;28564;53.346;-6.554;2023-06-14T08:02:41;101070.45;;;25.19;26.99
40372;BME280;28564;53.346;-6.554;2023-06-14T08:05:10;101072.52;;;25.25;26.85
40372;BME280;28564;53.346;-6.554;2023-06-14T08:07:37;101072.59;;;24.84;26.53
40372;BME280;28564;53.346;-6.554;2023-06-14T08:10:05;101071.24;;;25.38;26.36
40372;BME280;28564;53.346;-6.554;2023-06-14T08:12:33;101069.23;;;25.16;26.52
40372;BME280;28564;53.346;-6.554;2023-06-14T08:15:01;101071.60;;;25.23;26.59
40372;BME280;28564;53.346;-6.554;2023-06-14T08:17:28;101072.96;;;25.54;25.88
40372;BME280;28564;53.346;-6.554;2023-06-14T08:19:55;101073.64;;;25.25;25.43
40372;BME280;28564;53.346;-6.554;2023-06-14T08:22:21;101074.74;;;25.50;25.63
40372;BME280;28564;53.346;-6.554;2023-06-14T08:24:49;101082.57;;;25.25;25.58
40372;BME280;28564;53.346;-6.554;2023-06-14T08:27:17;101079.16;;;25.56;25.48
40372;BME280;28564;53.346;-6.554;2023-06-14T08:29:43;101083.55;;;25.37;25.52
40372;BME280;28564;53.346;-6.554;2023-06-14T08:32:10;101084.32;;;25.72;25.57
40372;BME280;28564;53.346;-6.554;2023-06-14T08:34:37;101086.27;;;25.47;26.01
40372;BME280;28564;53.346;-6.554;2023-06-14T08:37:05;101084.21;;;25.54;25.91
40372;BME280;28564;53.346;-6.554;2023-06-14T08:39:32;101083.17;;;25.32;25.56
40372;BME280;28564;53.346;-6.554;2023-06-14T08:42:01;101085.89;;;25.54;25.33
40372;BME280;28564;53.346;-6.554;2023-06-14T08:44:29;101087.65;;;25.57;25.41
40372;BME280;28564;53.346;-6.554;2023-06-14T08:46:57;101092.68;;;25.38;24.64
40372;BME280;28564;53.346;-6.554;2023-06-14T08:49:26;101090.21;;;25.60;24.83
40372;BME280;28564;53.346;-6.554;2023-06-14T08:51:57;101096.81;;;25.90;25.28
40372;BME280;28564;53.346;-6.554;2023-06-14T08:54:26;101100.44;;;25.65;25.59
40372;BME280;28564;53.346;-6.554;2023-06-14T08:56:54;101098.13;;;25.43;25.25
40372;BME280;28564;53.346;-6.554;2023-06-14T08:59:21;101099.36;;;25.67;25.38
40372;BME280;28564;53.346;-6.554;2023-06-14T09:01:49;101101.44;;;25.49;25.39
40372;BME280;28564;53.346;-6.554;2023-06-14T09:04:15;101099.73;;;25.71;25.29
40372;BME280;28564;53.346;-6.554;2023-06-14T09:06:43;101099.04;;;25.70;25.27
40372;BME280;28564;53.346;-6.554;2023-06-14T09:09:10;101102.24;;;25.46;25.12
40372;BME280;28564;53.346;-6.554;2023-06-14T09:11:37;101099.00;;;25.66;24.64
40372;BME280;28564;53.346;-6.554;2023-06-14T09:14:04;101105.03;;;25.67;24.89
40372;BME280;28564;53.346;-6.554;2023-06-14T09:16:32;101099.68;;;25.68;24.91
40372;BME280;28564;53.346;-6.554;2023-06-14T09:19:00;101102.40;;;25.46;24.80
40372;BME280;28564;53.346;-6.554;2023-06-14T09:21:27;101105.10;;;25.73;24.79
40372;BME280;28564;53.346;-6.554;2023-06-14T09:23:55;101101.12;;;25.95;23.70
40372;BME280;28564;53.346;-6.554;2023-06-14T09:26:22;101099.76;;;25.63;22.70
40372;BME280;28564;53.346;-6.554;2023-06-14T09:28:49;101098.39;;;25.61;23.26
40372;BME280;28564;53.346;-6.554;2023-06-14T09:31:19;101101.39;;;25.67;23.39
40372;BME280;28564;53.346;-6.554;2023-06-14T09:33:48;101100.89;;;25.73;23.93
40372;BME280;28564;53.346;-6.554;2023-06-14T09:36:17;101105.93;;;25.51;23.51
40372;BME280;28564;53.346;-6.554;2023-06-14T09:38:52;101108.17;;;25.65;23.38
40372;BME280;28564;53.346;-6.554;2023-06-14T09:41:20;101119.36;;;25.68;23.22
40372;BME280;28564;53.346;-6.554;2023-06-14T09:43:47;101122.41;;;25.65;22.95
40372;BME280;28564;53.346;-6.554;2023-06-14T09:46:14;101117.54;;;25.53;22.23
40372;BME280;28564;53.346;-6.554;2023-06-14T09:48:41;101118.08;;;25.42;22.31
40372;BME280;28564;53.346;-6.554;2023-06-14T09:51:09;101123.08;;;25.35;21.24
40372;BME280;28564;53.346;-6.554;2023-06-14T09:53:37;101119.82;;;25.25;20.64
40372;BME280;28564;53.346;-6.554;2023-06-14T09:56:06;101125.57;;;25.22;20.65
40372;BME280;28564;53.346;-6.554;2023-06-14T09:58:37;101120.30;;;25.21;20.51
40372;BME280;28564;53.346;-6.554;2023-06-14T10:01:09;101122.54;;;25.56;20.68
40372;BME280;28564;53.346;-6.554;2023-06-14T10:03:38;101123.94;;;25.35;20.56
40372;BME280;28564;53.346;-6.554;2023-06-14T10:06:07;101130.00;;;25.66;20.25
40372;BME280;28564;53.346;-6.554;2023-06-14T10:08:36;101129.81;;;25.37;20.21
40372;BME280;28564;53.346;-6.554;2023-06-14T10:11:05;101121.84;;;25.36;20.34
40372;BME280;28564;53.346;-6.554;2023-06-14T10:13:33;101124.64;;;25.45;20.64
40372;BME280;28564;53.346;-6.554;2023-06-14T10:16:09;101120.81;;;25.45;21.02
40372;BME280;28564;53.346;-6.554;2023-06-14T10:18:44;101124.50;;;25.50;21.80
40372;BME280;28564;53.346;-6.554;2023-06-14T10:21:21;101128.20;;;25.58;22.30
40372;BME280;28564;53.346;-6.554;2023-06-14T10:23:50;101121.88;;;25.68;23.23
40372;BME280;28564;53.346;-6.554;2023-06-14T10:26:20;101118.98;;;25.77;23.53
40372;BME280;28564;53.346;-6.554;2023-06-14T10:28:57;101111.69;;;25.60;23.86
40372;BME280;28564;53.346;-6.554;2023-06-14T10:31:40;101118.86;;;25.96;24.54
40372;BME280;28564;53.346;-6.554;2023-06-14T10:34:08;101117.45;;;25.84;24.63
40372;BME280;28564;53.346;-6.554;2023-06-14T10:36:36;101121.14;;;26.16;24.84
40372;BME280;28564;53.346;-6.554;2023-06-14T10:39:06;101123.57;;;26.00;24.75
40372;BME280;28564;53.346;-6.554;2023-06-14T10:41:36;101125.41;;;26.01;25.09
40372;BME280;28564;53.346;-6.554;2023-06-14T10:45:13;101131.63;;;26.03;25.68
40372;BME280;28564;53.346;-6.554;2023-06-14T10:47:40;101123.76;;;26.00;26.44
40372;BME280;28564;53.346;-6.554;2023-06-14T10:50:09;101121.58;;;26.06;26.66
40372;BME280;28564;53.346;-6.554;2023-06-14T10:52:40;101122.33;;;26.12;26.79
40372;BME280;28564;53.346;-6.554;2023-06-14T10:55:09;101122.27;;;26.17;27.03
40372;BME280;28564;53.346;-6.554;2023-06-14T10:57:38;101126.01;;;26.46;27.17
40372;BME280;28564;53.346;-6.554;2023-06-14T11:00:07;101126.29;;;26.23;26.87
40372;BME280;28564;53.346;-6.554;2023-06-14T11:02:51;101127.32;;;26.03;26.58
40372;BME280;28564;53.346;-6.554;2023-06-14T11:05:24;101127.93;;;26.21;26.45
40372;BME280;28564;53.346;-6.554;2023-06-14T11:08:04;101128.06;;;26.25;26.56
40372;BME280;28564;53.346;-6.554;2023-06-14T11:10:37;101128.33;;;26.30;26.53
40372;BME280;28564;53.346;-6.554;2023-06-14T11:13:05;101127.06;;;26.31;26.53
40372;BME280;28564;53.346;-6.554;2023-06-14T11:15:34;101123.87;;;26.14;26.97
40372;BME280;28564;53.346;-6.554;2023-06-14T11:18:04;101130.46;;;26.41;26.70
40372;BME280;28564;53.346;-6.554;2023-06-14T11:20:32;101134.69;;;26.18;26.91
40372;BME280;28564;53.346;-6.554;2023-06-14T11:23:00;101129.45;;;26.37;27.06
40372;BME280;28564;53.346;-6.554;2023-06-14T11:25:28;101128.71;;;26.19;27.18
40372;BME280;28564;53.346;-6.554;2023-06-14T11:27:56;101130.45;;;26.39;26.76
40372;BME280;28564;53.346;-6.554;2023-06-14T11:30:23;101128.19;;;26.44;27.01
40372;BME280;28564;53.346;-6.554;2023-06-14T11:32:52;101133.59;;;26.55;27.40
40372;BME280;28564;53.346;-6.554;2023-06-14T11:35:22;101131.94;;;26.56;26.33
40372;BME280;28564;53.346;-6.554;2023-06-14T11:37:50;101136.88;;;26.54;25.95
40372;BME280;28564;53.346;-6.554;2023-06-14T11:40:19;101132.14;;;26.40;26.06
40372;BME280;28564;53.346;-6.554;2023-06-14T11:42:46;101134.24;;;26.40;26.60
40372;BME280;28564;53.346;-6.554;2023-06-14T11:45:13;101130.68;;;26.24;26.83
40372;BME280;28564;53.346;-6.554;2023-06-14T11:47:41;101125.34;;;26.30;26.86
40372;BME280;28564;53.346;-6.554;2023-06-14T11:50:09;101121.01;;;26.65;27.35
40372;BME280;28564;53.346;-6.554;2023-06-14T11:52:37;101121.07;;;26.26;27.45
40372;BME280;28564;53.346;-6.554;2023-06-14T11:55:05;101117.63;;;26.80;27.57
40372;BME280;28564;53.346;-6.554;2023-06-14T11:57:34;101117.11;;;27.00;27.78
40372;BME280;28564;53.346;-6.554;2023-06-14T12:00:04;101115.60;;;26.96;26.73
40372;BME280;28564;53.346;-6.554;2023-06-14T12:02:31;101115.76;;;26.79;26.43
40372;BME280;28564;53.346;-6.554;2023-06-14T12:05:04;101119.65;;;26.89;26.68
40372;BME280;28564;53.346;-6.554;2023-06-14T12:07:31;101119.95;;;27.15;26.63
40372;BME280;28564;53.346;-6.554;2023-06-14T12:10:08;101121.72;;;27.20;26.85
40372;BME280;28564;53.346;-6.554;2023-06-14T12:12:37;101124.03;;;26.96;26.33
40372;BME280;28564;53.346;-6.554;2023-06-14T12:15:05;101120.61;;;27.39;26.43
40372;BME280;28564;53.346;-6.554;2023-06-14T12:17:33;101115.79;;;27.04;26.48
40372;BME280;28564;53.346;-6.554;2023-06-14T12:20:06;101116.18;;;27.13;26.23
40372;BME280;28564;53.346;-6.554;2023-06-14T12:22:33;101115.99;;;27.28;26.63
40372;BME280;28564;53.346;-6.554;2023-06-14T12:25:01;101116.74;;;27.33;26.04
40372;BME280;28564;53.346;-6.554;2023-06-14T12:27:29;101118.46;;;27.36;25.92
40372;BME280;28564;53.346;-6.554;2023-06-14T12:30:00;101111.66;;;27.38;26.01
40372;BME280;28564;53.346;-6.554;2023-06-14T12:32:28;101115.84;;;27.49;26.30
40372;BME280;28564;53.346;-6.554;2023-06-14T12:34:55;101121.48;;;27.60;26.69
40372;BME280;28564;53.346;-6.554;2023-06-14T12:37:22;101124.65;;;27.66;26.14
40372;BME280;28564;53.346;-6.554;2023-06-14T12:39:49;101120.74;;;27.74;25.84
40372;BME280;28564;53.346;-6.554;2023-06-14T12:42:16;101117.82;;;27.85;26.06
40372;BME280;28564;53.346;-6.554;2023-06-14T12:44:44;101112.96;;;28.19;26.20